Weather at Gallia Meigs Regional Airport

Public forecast

Using degrees Fahrenheit for public forecast. Weather courtesy of forecast.io.

Closest aviation weather report (METAR) to Gallia Meigs Regional Airport

Closest report is Mason County Airport, 5.7 nm (10.6 km) NNE. Retrieved 2021/10/20 10:15 UTC (18 minutes ago):

K3I2 201015Z AUTO 00000KT 2SM BR BKN001 06/06 A3024 RMK AO2 T00550055

Closest aviation forecast (TAF) to Gallia Meigs Regional Airport

Closest forecast is Tri-State/Milton J. Ferguson Field, 33.6 nm (62.3 km) SSW. Retrieved 2021/10/20 06:22 UTC (4 hours ago):

TAF KHTS 200520Z 2006/2106 00000KT P6SM FEW200 FM201600 23006KT P6SM SKC FM210000 19003KT P6SM SKC